sensor_id;sensor_type;location;lat;lon;timestamp;P1;durP1;ratioP1;P2;durP2;ratioP2
37973;SDS011;23796;51.458;7.000;2024-03-23T00:56:15;13.73;;;3.80;;
37973;SDS011;23796;51.458;7.000;2024-03-23T00:58:41;9.95;;;3.00;;
37973;SDS011;23796;51.458;7.000;2024-03-23T01:01:06;11.75;;;3.60;;
37973;SDS011;23796;51.458;7.000;2024-03-23T01:03:32;11.02;;;3.50;;
37973;SDS011;23796;51.458;7.000;2024-03-23T01:06:01;14.27;;;3.55;;
37973;SDS011;23796;51.458;7.000;2024-03-23T01:08:29;15.40;;;3.50;;
37973;SDS011;23796;51.458;7.000;2024-03-23T01:10:58;15.25;;;3.83;;
37973;SDS011;23796;51.458;7.000;2024-03-23T01:13:25;10.52;;;3.28;;
37973;SDS011;23796;51.458;7.000;2024-03-23T01:15:52;16.35;;;4.78;;
37973;SDS011;23796;51.458;7.000;2024-03-23T01:18:19;14.63;;;4.65;;
37973;SDS011;23796;51.458;7.000;2024-03-23T01:20:48;12.73;;;3.63;;
37973;SDS011;23796;51.458;7.000;2024-03-23T01:23:14;9.63;;;2.70;;
37973;SDS011;23796;51.458;7.000;2024-03-23T01:25:39;9.15;;;2.50;;
37973;SDS011;23796;51.458;7.000;2024-03-23T01:28:07;11.45;;;2.50;;
37973;SDS011;23796;51.458;7.000;2024-03-23T01:30:33;9.90;;;2.78;;
37973;SDS011;23796;51.458;7.000;2024-03-23T01:32:59;7.22;;;1.73;;
37973;SDS011;23796;51.458;7.000;2024-03-23T01:35:30;9.85;;;2.50;;
37973;SDS011;23796;51.458;7.000;2024-03-23T01:37:55;10.10;;;2.40;;
37973;SDS011;23796;51.458;7.000;2024-03-23T01:40:21;4.65;;;1.40;;
37973;SDS011;23796;51.458;7.000;2024-03-23T01:42:56;8.73;;;2.30;;
37973;SDS011;23796;51.458;7.000;2024-03-23T01:45:22;8.23;;;2.35;;
37973;SDS011;23796;51.458;7.000;2024-03-23T01:47:53;8.30;;;2.00;;
37973;SDS011;23796;51.458;7.000;2024-03-23T01:50:19;6.43;;;1.70;;
37973;SDS011;23796;51.458;7.000;2024-03-23T01:52:46;8.57;;;1.70;;
37973;SDS011;23796;51.458;7.000;2024-03-23T01:55:13;8.10;;;2.35;;
37973;SDS011;23796;51.458;7.000;2024-03-23T01:57:38;7.72;;;2.00;;
37973;SDS011;23796;51.458;7.000;2024-03-23T02:00:04;5.53;;;1.60;;
37973;SDS011;23796;51.458;7.000;2024-03-23T02:02:31;3.95;;;1.23;;
37973;SDS011;23796;51.458;7.000;2024-03-23T02:04:57;5.85;;;1.40;;
37973;SDS011;23796;51.458;7.000;2024-03-23T02:07:22;5.90;;;1.60;;
37973;SDS011;23796;51.458;7.000;2024-03-23T02:09:49;7.25;;;1.20;;
37973;SDS011;23796;51.458;7.000;2024-03-23T02:12:21;6.87;;;1.43;;
37973;SDS011;23796;51.458;7.000;2024-03-23T02:14:46;6.07;;;1.33;;
37973;SDS011;23796;51.458;7.000;2024-03-23T02:17:12;5.30;;;1.38;;
37973;SDS011;23796;51.458;7.000;2024-03-23T02:19:38;6.35;;;1.38;;
37973;SDS011;23796;51.458;7.000;2024-03-23T02:22:03;5.53;;;1.52;;
37973;SDS011;23796;51.458;7.000;2024-03-23T02:24:29;7.05;;;1.75;;
37973;SDS011;23796;51.458;7.000;2024-03-23T02:26:55;6.07;;;1.67;;
37973;SDS011;23796;51.458;7.000;2024-03-23T02:29:20;6.50;;;1.38;;
37973;SDS011;23796;51.458;7.000;2024-03-23T02:31:46;6.85;;;1.80;;
37973;SDS011;23796;51.458;7.000;2024-03-23T02:34:12;6.32;;;1.73;;
37973;SDS011;23796;51.458;7.000;2024-03-23T02:36:37;6.85;;;1.77;;
37973;SDS011;23796;51.458;7.000;2024-03-23T02:39:03;6.60;;;1.48;;
37973;SDS011;23796;51.458;7.000;2024-03-23T02:41:28;6.65;;;2.40;;
37973;SDS011;23796;51.458;7.000;2024-03-23T02:43:54;5.50;;;1.40;;
37973;SDS011;23796;51.458;7.000;2024-03-23T02:46:20;4.20;;;1.10;;
37973;SDS011;23796;51.458;7.000;2024-03-23T02:48:48;5.00;;;1.48;;
37973;SDS011;23796;51.458;7.000;2024-03-23T02:51:13;8.75;;;2.33;;
37973;SDS011;23796;51.458;7.000;2024-03-23T02:53:39;8.35;;;1.88;;
37973;SDS011;23796;51.458;7.000;2024-03-23T02:56:05;7.03;;;1.90;;
37973;SDS011;23796;51.458;7.000;2024-03-23T02:58:31;6.70;;;1.70;;
37973;SDS011;23796;51.458;7.000;2024-03-23T03:00:57;5.15;;;1.50;;
37973;SDS011;23796;51.458;7.000;2024-03-23T03:03:22;4.60;;;1.40;;
37973;SDS011;23796;51.458;7.000;2024-03-23T03:05:49;7.88;;;1.80;;
37973;SDS011;23796;51.458;7.000;2024-03-23T03:08:23;6.07;;;1.83;;
37973;SDS011;23796;51.458;7.000;2024-03-23T03:10:51;7.80;;;2.30;;
37973;SDS011;23796;51.458;7.000;2024-03-23T03:13:19;4.72;;;1.40;;
37973;SDS011;23796;51.458;7.000;2024-03-23T03:15:45;7.10;;;1.55;;
37973;SDS011;23796;51.458;7.000;2024-03-23T03:18:10;6.50;;;1.83;;
37973;SDS011;23796;51.458;7.000;2024-03-23T03:20:39;9.23;;;2.05;;
37973;SDS011;23796;51.458;7.000;2024-03-23T03:23:05;5.45;;;1.60;;
37973;SDS011;23796;51.458;7.000;2024-03-23T03:25:31;7.22;;;1.77;;
37973;SDS011;23796;51.458;7.000;2024-03-23T03:27:59;5.47;;;1.60;;
37973;SDS011;23796;51.458;7.000;2024-03-23T03:30:24;8.45;;;1.80;;
37973;SDS011;23796;51.458;7.000;2024-03-23T03:32:51;6.97;;;1.70;;
37973;SDS011;23796;51.458;7.000;2024-03-23T03:35:18;8.20;;;2.10;;
37973;SDS011;23796;51.458;7.000;2024-03-23T03:37:44;6.78;;;1.70;;
37973;SDS011;23796;51.458;7.000;2024-03-23T03:40:09;7.18;;;1.92;;
37973;SDS011;23796;51.458;7.000;2024-03-23T03:42:36;6.57;;;1.75;;
37973;SDS011;23796;51.458;7.000;2024-03-23T03:45:01;6.60;;;1.27;;
37973;SDS011;23796;51.458;7.000;2024-03-23T03:47:29;5.97;;;1.20;;
37973;SDS011;23796;51.458;7.000;2024-03-23T03:49:55;9.02;;;2.17;;
37973;SDS011;23796;51.458;7.000;2024-03-23T03:52:20;6.75;;;1.67;;
37973;SDS011;23796;51.458;7.000;2024-03-23T03:54:46;8.70;;;3.05;;
37973;SDS011;23796;51.458;7.000;2024-03-23T03:57:11;8.35;;;2.25;;
37973;SDS011;23796;51.458;7.000;2024-03-23T03:59:37;9.15;;;2.45;;
37973;SDS011;23796;51.458;7.000;2024-03-23T04:02:02;8.75;;;2.45;;
37973;SDS011;23796;51.458;7.000;2024-03-23T04:04:28;7.95;;;2.60;;
37973;SDS011;23796;51.458;7.000;2024-03-23T04:07:00;6.82;;;2.25;;
37973;SDS011;23796;51.458;7.000;2024-03-23T04:09:30;6.60;;;2.67;;
37973;SDS011;23796;51.458;7.000;2024-03-23T04:11:56;6.93;;;2.47;;
37973;SDS011;23796;51.458;7.000;2024-03-23T04:14:21;8.40;;;2.40;;
37973;SDS011;23796;51.458;7.000;2024-03-23T04:16:47;7.43;;;2.53;;
37973;SDS011;23796;51.458;7.000;2024-03-23T04:19:12;6.72;;;2.50;;
37973;SDS011;23796;51.458;7.000;2024-03-23T04:21:38;7.30;;;2.30;;
37973;SDS011;23796;51.458;7.000;2024-03-23T04:24:04;9.35;;;2.67;;
37973;SDS011;23796;51.458;7.000;2024-03-23T04:26:30;8.68;;;1.95;;
37973;SDS011;23796;51.458;7.000;2024-03-23T04:28:55;6.43;;;2.05;;
37973;SDS011;23796;51.458;7.000;2024-03-23T04:31:21;10.25;;;2.38;;
37973;SDS011;23796;51.458;7.000;2024-03-23T04:33:47;7.50;;;2.00;;
37973;SDS011;23796;51.458;7.000;2024-03-23T04:36:12;8.10;;;2.15;;
37973;SDS011;23796;51.458;7.000;2024-03-23T04:38:38;5.97;;;1.70;;
37973;SDS011;23796;51.458;7.000;2024-03-23T04:41:06;6.75;;;1.67;;
37973;SDS011;23796;51.458;7.000;2024-03-23T04:43:32;7.70;;;1.95;;
37973;SDS011;23796;51.458;7.000;2024-03-23T04:46:00;6.72;;;1.83;;
37973;SDS011;23796;51.458;7.000;2024-03-23T04:48:26;8.98;;;2.15;;
37973;SDS011;23796;51.458;7.000;2024-03-23T04:50:54;10.20;;;2.45;;
37973;SDS011;23796;51.458;7.000;2024-03-23T04:53:22;6.72;;;1.60;;
37973;SDS011;23796;51.458;7.000;2024-03-23T04:55:52;8.45;;;2.45;;
37973;SDS011;23796;51.458;7.000;2024-03-23T04:58:19;5.68;;;1.73;;
37973;SDS011;23796;51.458;7.000;2024-03-23T05:00:44;7.10;;;1.75;;
37973;SDS011;23796;51.458;7.000;2024-03-23T05:03:10;7.30;;;2.47;;
37973;SDS011;23796;51.458;7.000;2024-03-23T05:05:35;7.28;;;2.00;;
37973;SDS011;23796;51.458;7.000;2024-03-23T05:08:01;10.98;;;2.70;;
37973;SDS011;23796;51.458;7.000;2024-03-23T05:10:26;7.88;;;2.40;;
37973;SDS011;23796;51.458;7.000;2024-03-23T05:12:57;10.23;;;3.33;;
37973;SDS011;23796;51.458;7.000;2024-03-23T05:15:23;10.02;;;3.28;;
37973;SDS011;23796;51.458;7.000;2024-03-23T05:17:48;7.32;;;3.05;;
37973;SDS011;23796;51.458;7.000;2024-03-23T05:20:14;9.30;;;2.72;;
37973;SDS011;23796;51.458;7.000;2024-03-23T05:22:39;11.75;;;3.40;;
37973;SDS011;23796;51.458;7.000;2024-03-23T05:25:05;8.57;;;3.20;;
37973;SDS011;23796;51.458;7.000;2024-03-23T05:27:31;9.70;;;3.15;;
37973;SDS011;23796;51.458;7.000;2024-03-23T05:29:58;9.82;;;3.97;;
37973;SDS011;23796;51.458;7.000;2024-03-23T05:32:24;10.35;;;4.35;;
37973;SDS011;23796;51.458;7.000;2024-03-23T05:34:49;9.20;;;3.85;;
37973;SDS011;23796;51.458;7.000;2024-03-23T05:37:20;12.77;;;4.28;;
37973;SDS011;23796;51.458;7.000;2024-03-23T05:39:46;9.02;;;3.90;;
37973;SDS011;23796;51.458;7.000;2024-03-23T05:42:14;10.75;;;3.80;;
37973;SDS011;23796;51.458;7.000;2024-03-23T05:44:44;11.88;;;3.88;;
37973;SDS011;23796;51.458;7.000;2024-03-23T05:47:10;10.25;;;3.72;;
37973;SDS011;23796;51.458;7.000;2024-03-23T05:49:39;8.32;;;3.17;;
37973;SDS011;23796;51.458;7.000;2024-03-23T05:52:07;10.82;;;3.55;;
37973;SDS011;23796;51.458;7.000;2024-03-23T05:54:33;10.70;;;3.50;;
37973;SDS011;23796;51.458;7.000;2024-03-23T05:56:58;14.70;;;3.75;;
37973;SDS011;23796;51.458;7.000;2024-03-23T05:59:27;10.63;;;3.45;;
37973;SDS011;23796;51.458;7.000;2024-03-23T06:01:52;7.95;;;3.33;;
37973;SDS011;23796;51.458;7.000;2024-03-23T06:04:18;9.40;;;3.53;;
37973;SDS011;23796;51.458;7.000;2024-03-23T06:06:44;7.90;;;3.45;;
37973;SDS011;23796;51.458;7.000;2024-03-23T06:09:10;10.05;;;4.03;;
37973;SDS011;23796;51.458;7.000;2024-03-23T06:11:35;11.15;;;4.03;;
37973;SDS011;23796;51.458;7.000;2024-03-23T06:14:01;9.20;;;3.97;;
37973;SDS011;23796;51.458;7.000;2024-03-23T06:16:27;10.82;;;4.40;;
37973;SDS011;23796;51.458;7.000;2024-03-23T06:18:53;10.40;;;4.57;;
37973;SDS011;23796;51.458;7.000;2024-03-23T06:21:20;10.02;;;3.78;;
37973;SDS011;23796;51.458;7.000;2024-03-23T06:23:45;9.27;;;4.28;;
37973;SDS011;23796;51.458;7.000;2024-03-23T06:26:16;7.82;;;4.05;;
37973;SDS011;23796;51.458;7.000;2024-03-23T06:28:42;9.40;;;4.80;;
37973;SDS011;23796;51.458;7.000;2024-03-23T06:31:11;9.07;;;4.53;;
37973;SDS011;23796;51.458;7.000;2024-03-23T06:33:37;10.93;;;4.50;;
37973;SDS011;23796;51.458;7.000;2024-03-23T06:36:06;8.05;;;4.13;;
37973;SDS011;23796;51.458;7.000;2024-03-23T06:38:33;10.10;;;4.97;;
37973;SDS011;23796;51.458;7.000;2024-03-23T06:41:04;9.63;;;4.95;;
37973;SDS011;23796;51.458;7.000;2024-03-23T06:43:30;9.45;;;5.38;;
37973;SDS011;23796;51.458;7.000;2024-03-23T06:45:57;12.43;;;4.93;;
37973;SDS011;23796;51.458;7.000;2024-03-23T06:48:23;11.75;;;4.60;;
37973;SDS011;23796;51.458;7.000;2024-03-23T06:50:49;10.52;;;4.53;;
37973;SDS011;23796;51.458;7.000;2024-03-23T06:53:15;13.90;;;5.85;;
37973;SDS011;23796;51.458;7.000;2024-03-23T06:55:41;9.63;;;6.20;;
37973;SDS011;23796;51.458;7.000;2024-03-23T06:58:07;13.05;;;6.28;;
37973;SDS011;23796;51.458;7.000;2024-03-23T07:00:33;13.05;;;5.70;;
37973;SDS011;23796;51.458;7.000;2024-03-23T07:03:02;14.02;;;6.35;;
37973;SDS011;23796;51.458;7.000;2024-03-23T07:05:28;15.07;;;5.88;;
37973;SDS011;23796;51.458;7.000;2024-03-23T07:07:54;9.82;;;5.43;;
37973;SDS011;23796;51.458;7.000;2024-03-23T07:10:22;13.77;;;6.30;;
37973;SDS011;23796;51.458;7.000;2024-03-23T07:12:48;14.73;;;6.35;;
37973;SDS011;23796;51.458;7.000;2024-03-23T07:15:13;12.80;;;5.90;;
37973;SDS011;23796;51.458;7.000;2024-03-23T07:17:39;13.55;;;5.55;;
37973;SDS011;23796;51.458;7.000;2024-03-23T07:20:05;12.90;;;5.43;;
37973;SDS011;23796;51.458;7.000;2024-03-23T07:22:35;12.55;;;6.05;;
37973;SDS011;23796;51.458;7.000;2024-03-23T07:25:01;11.68;;;5.38;;
37973;SDS011;23796;51.458;7.000;2024-03-23T07:27:28;10.70;;;6.10;;
37973;SDS011;23796;51.458;7.000;2024-03-23T07:29:53;12.65;;;5.72;;
37973;SDS011;23796;51.458;7.000;2024-03-23T07:32:20;12.93;;;5.88;;
37973;SDS011;23796;51.458;7.000;2024-03-23T07:34:45;13.73;;;5.50;;
37973;SDS011;23796;51.458;7.000;2024-03-23T07:37:13;10.90;;;5.10;;
37973;SDS011;23796;51.458;7.000;2024-03-23T07:39:39;11.48;;;5.50;;
37973;SDS011;23796;51.458;7.000;2024-03-23T07:42:05;11.93;;;5.40;;
37973;SDS011;23796;51.458;7.000;2024-03-23T07:44:31;13.60;;;5.47;;
37973;SDS011;23796;51.458;7.000;2024-03-23T07:46:58;12.43;;;4.93;;
37973;SDS011;23796;51.458;7.000;2024-03-23T07:49:25;10.60;;;5.70;;
37973;SDS011;23796;51.458;7.000;2024-03-23T07:51:50;13.05;;;5.35;;
37973;SDS011;23796;51.458;7.000;2024-03-23T07:54:16;13.73;;;5.40;;
37973;SDS011;23796;51.458;7.000;2024-03-23T07:56:44;13.27;;;4.80;;
37973;SDS011;23796;51.458;7.000;2024-03-23T07:59:10;12.48;;;5.13;;
37973;SDS011;23796;51.458;7.000;2024-03-23T08:01:36;14.77;;;4.85;;
37973;SDS011;23796;51.458;7.000;2024-03-23T08:04:01;16.02;;;5.25;;
37973;SDS011;23796;51.458;7.000;2024-03-23T08:06:27;12.07;;;4.47;;
37973;SDS011;23796;51.458;7.000;2024-03-23T08:08:56;10.30;;;4.53;;
37973;SDS011;23796;51.458;7.000;2024-03-23T08:11:27;13.13;;;4.60;;
37973;SDS011;23796;51.458;7.000;2024-03-23T08:13:56;12.43;;;4.13;;
37973;SDS011;23796;51.458;7.000;2024-03-23T08:16:22;9.98;;;4.22;;
37973;SDS011;23796;51.458;7.000;2024-03-23T08:18:48;14.80;;;4.55;;
37973;SDS011;23796;51.458;7.000;2024-03-23T08:21:16;10.88;;;4.00;;
37973;SDS011;23796;51.458;7.000;2024-03-23T08:23:41;12.75;;;4.15;;
37973;SDS011;23796;51.458;7.000;2024-03-23T08:26:07;14.07;;;4.70;;
37973;SDS011;23796;51.458;7.000;2024-03-23T08:28:37;14.73;;;4.15;;
37973;SDS011;23796;51.458;7.000;2024-03-23T08:31:10;9.25;;;3.47;;
37973;SDS011;23796;51.458;7.000;2024-03-23T08:33:37;14.40;;;4.00;;
37973;SDS011;23796;51.458;7.000;2024-03-23T08:36:07;12.13;;;3.97;;
37973;SDS011;23796;51.458;7.000;2024-03-23T08:38:33;10.48;;;3.58;;
37973;SDS011;23796;51.458;7.000;2024-03-23T08:43:29;9.05;;;2.78;;
37973;SDS011;23796;51.458;7.000;2024-03-23T08:48:35;10.20;;;3.47;;
37973;SDS011;23796;51.458;7.000;2024-03-23T08:51:08;10.32;;;3.22;;
37973;SDS011;23796;51.458;7.000;2024-03-23T08:53:37;10.75;;;3.22;;
37973;SDS011;23796;51.458;7.000;2024-03-23T08:56:04;8.38;;;3.65;;
37973;SDS011;23796;51.458;7.000;2024-03-23T08:58:32;12.52;;;3.63;;
37973;SDS011;23796;51.458;7.000;2024-03-23T09:01:17;8.32;;;2.90;;
37973;SDS011;23796;51.458;7.000;2024-03-23T09:03:43;9.13;;;2.33;;
37973;SDS011;23796;51.458;7.000;2024-03-23T09:06:12;7.72;;;2.63;;
37973;SDS011;23796;51.458;7.000;2024-03-23T09:08:39;5.78;;;1.60;;
37973;SDS011;23796;51.458;7.000;2024-03-23T09:11:09;6.07;;;1.50;;
37973;SDS011;23796;51.458;7.000;2024-03-23T09:13:37;5.45;;;2.15;;
37973;SDS011;23796;51.458;7.000;2024-03-23T09:16:03;6.18;;;1.73;;
37973;SDS011;23796;51.458;7.000;2024-03-23T09:18:35;7.10;;;1.95;;
37973;SDS011;23796;51.458;7.000;2024-03-23T09:21:02;7.95;;;1.70;;
37973;SDS011;23796;51.458;7.000;2024-03-23T09:23:29;6.03;;;2.10;;
37973;SDS011;23796;51.458;7.000;2024-03-23T09:25:55;8.20;;;2.28;;
37973;SDS011;23796;51.458;7.000;2024-03-23T09:28:20;10.20;;;3.17;;
37973;SDS011;23796;51.458;7.000;2024-03-23T09:30:47;7.88;;;2.55;;
37973;SDS011;23796;51.458;7.000;2024-03-23T09:33:12;7.78;;;3.13;;
37973;SDS011;23796;51.458;7.000;2024-03-23T09:35:39;9.32;;;3.50;;
37973;SDS011;23796;51.458;7.000;2024-03-23T09:38:05;8.57;;;3.03;;
37973;SDS011;23796;51.458;7.000;2024-03-23T09:40:32;9.95;;;3.50;;
37973;SDS011;23796;51.458;7.000;2024-03-23T09:45:31;9.30;;;3.33;;
37973;SDS011;23796;51.458;7.000;2024-03-23T09:48:03;8.80;;;3.00;;
37973;SDS011;23796;51.458;7.000;2024-03-23T09:50:29;8.75;;;2.92;;
37973;SDS011;23796;51.458;7.000;2024-03-23T09:52:57;8.98;;;2.63;;
37973;SDS011;23796;51.458;7.000;2024-03-23T09:55:23;13.18;;;3.45;;
37973;SDS011;23796;51.458;7.000;2024-03-23T09:57:53;7.43;;;2.30;;
37973;SDS011;23796;51.458;7.000;2024-03-23T10:00:19;6.85;;;2.70;;
37973;SDS011;23796;51.458;7.000;2024-03-23T10:02:45;9.25;;;2.45;;
37973;SDS011;23796;51.458;7.000;2024-03-23T10:05:22;7.85;;;2.38;;
37973;SDS011;23796;51.458;7.000;2024-03-23T10:07:52;11.98;;;2.85;;
37973;SDS011;23796;51.458;7.000;2024-03-23T10:10:17;7.65;;;1.77;;
37973;SDS011;23796;51.458;7.000;2024-03-23T10:12:47;7.85;;;1.90;;
37973;SDS011;23796;51.458;7.000;2024-03-23T10:15:25;7.88;;;1.88;;
37973;SDS011;23796;51.458;7.000;2024-03-23T10:17:51;8.05;;;2.20;;
37973;SDS011;23796;51.458;7.000;2024-03-23T10:20:20;8.85;;;1.90;;
37973;SDS011;23796;51.458;7.000;2024-03-23T10:22:50;9.40;;;2.65;;
37973;SDS011;23796;51.458;7.000;2024-03-23T10:25:24;9.38;;;2.90;;
37973;SDS011;23796;51.458;7.000;2024-03-23T10:27:59;5.43;;;1.85;;
37973;SDS011;23796;51.458;7.000;2024-03-23T10:30:25;6.40;;;2.05;;
37973;SDS011;23796;51.458;7.000;2024-03-23T10:33:06;5.25;;;1.52;;
37973;SDS011;23796;51.458;7.000;2024-03-23T10:38:04;6.82;;;1.70;;
37973;SDS011;23796;51.458;7.000;2024-03-23T10:40:31;7.13;;;1.92;;
37973;SDS011;23796;51.458;7.000;2024-03-23T10:43:00;8.50;;;2.08;;
37973;SDS011;23796;51.458;7.000;2024-03-23T10:45:27;7.88;;;1.73;;
37973;SDS011;23796;51.458;7.000;2024-03-23T10:47:53;8.00;;;1.83;;
37973;SDS011;23796;51.458;7.000;2024-03-23T10:50:19;7.88;;;1.75;;
37973;SDS011;23796;51.458;7.000;2024-03-23T10:52:47;4.60;;;1.15;;
37973;SDS011;23796;51.458;7.000;2024-03-23T10:55:16;1.92;;;0.50;;
37973;SDS011;23796;51.458;7.000;2024-03-23T10:57:45;3.00;;;0.82;;
37973;SDS011;23796;51.458;7.000;2024-03-23T11:00:16;3.42;;;0.60;;
37973;SDS011;23796;51.458;7.000;2024-03-23T11:02:42;2.15;;;0.52;;
37973;SDS011;23796;51.458;7.000;2024-03-23T11:07:55;5.32;;;0.80;;
37973;SDS011;23796;51.458;7.000;2024-03-23T11:10:28;2.83;;;0.43;;
37973;SDS011;23796;51.458;7.000;2024-03-23T11:15:47;2.78;;;0.50;;
37973;SDS011;23796;51.458;7.000;2024-03-23T11:18:12;2.17;;;0.40;;
37973;SDS011;23796;51.458;7.000;2024-03-23T11:20:45;2.90;;;0.60;;
37973;SDS011;23796;51.458;7.000;2024-03-23T11:23:26;3.38;;;0.60;;
37973;SDS011;23796;51.458;7.000;2024-03-23T11:25:55;3.38;;;0.65;;
37973;SDS011;23796;51.458;7.000;2024-03-23T11:28:20;2.60;;;0.80;;
37973;SDS011;23796;51.458;7.000;2024-03-23T11:30:46;5.00;;;1.08;;
37973;SDS011;23796;51.458;7.000;2024-03-23T11:33:12;3.05;;;0.70;;
37973;SDS011;23796;51.458;7.000;2024-03-23T11:35:38;3.88;;;1.15;;
37973;SDS011;23796;51.458;7.000;2024-03-23T11:38:09;3.42;;;1.10;;
37973;SDS011;23796;51.458;7.000;2024-03-23T11:40:38;4.85;;;1.10;;
37973;SDS011;23796;51.458;7.000;2024-03-23T11:43:09;4.18;;;0.90;;
37973;SDS011;23796;51.458;7.000;2024-03-23T11:45:48;5.13;;;1.20;;
37973;SDS011;23796;51.458;7.000;2024-03-23T11:48:18;5.53;;;1.60;;
37973;SDS011;23796;51.458;7.000;2024-03-23T11:50:46;5.03;;;1.40;;
37973;SDS011;23796;51.458;7.000;2024-03-23T11:53:16;5.82;;;1.60;;
37973;SDS011;23796;51.458;7.000;2024-03-23T11:55:47;4.80;;;1.38;;
37973;SDS011;23796;51.458;7.000;2024-03-23T11:58:13;5.78;;;1.25;;
37973;SDS011;23796;51.458;7.000;2024-03-23T12:00:39;4.90;;;1.20;;
37973;SDS011;23796;51.458;7.000;2024-03-23T12:03:05;4.97;;;1.40;;
37973;SDS011;23796;51.458;7.000;2024-03-23T12:05:32;3.88;;;1.05;;
37973;SDS011;23796;51.458;7.000;2024-03-23T12:13:35;4.13;;;0.88;;
37973;SDS011;23796;51.458;7.000;2024-03-23T12:18:36;4.00;;;0.90;;
37973;SDS011;23796;51.458;7.000;2024-03-23T12:21:05;3.92;;;1.00;;
37973;SDS011;23796;51.458;7.000;2024-03-23T12:23:31;4.68;;;1.00;;
37973;SDS011;23796;51.458;7.000;2024-03-23T12:25:57;5.78;;;1.10;;
37973;SDS011;23796;51.458;7.000;2024-03-23T12:28:23;4.05;;;0.75;;
37973;SDS011;23796;51.458;7.000;2024-03-23T12:30:49;5.93;;;1.00;;
37973;SDS011;23796;51.458;7.000;2024-03-23T12:33:14;5.20;;;0.95;;
37973;SDS011;23796;51.458;7.000;2024-03-23T12:35:40;4.13;;;0.98;;
37973;SDS011;23796;51.458;7.000;2024-03-23T12:38:06;3.60;;;1.13;;
37973;SDS011;23796;51.458;7.000;2024-03-23T12:40:34;3.90;;;1.05;;
37973;SDS011;23796;51.458;7.000;2024-03-23T12:42:59;5.20;;;0.80;;
37973;SDS011;23796;51.458;7.000;2024-03-23T12:45:25;4.93;;;1.10;;
37973;SDS011;23796;51.458;7.000;2024-03-23T12:47:51;5.72;;;1.50;;
37973;SDS011;23796;51.458;7.000;2024-03-23T12:50:20;4.13;;;1.50;;
37973;SDS011;23796;51.458;7.000;2024-03-23T12:52:46;4.32;;;1.17;;
37973;SDS011;23796;51.458;7.000;2024-03-23T12:55:12;5.35;;;1.27;;
37973;SDS011;23796;51.458;7.000;2024-03-23T12:57:38;4.75;;;1.05;;
37973;SDS011;23796;51.458;7.000;2024-03-23T13:00:06;5.57;;;1.08;;
37973;SDS011;23796;51.458;7.000;2024-03-23T13:02:34;3.80;;;1.10;;
37973;SDS011;23796;51.458;7.000;2024-03-23T13:05:00;5.28;;;1.20;;
37973;SDS011;23796;51.458;7.000;2024-03-23T13:07:25;4.43;;;1.55;;
37973;SDS011;23796;51.458;7.000;2024-03-23T13:09:51;4.10;;;1.17;;
37973;SDS011;23796;51.458;7.000;2024-03-23T13:12:21;3.53;;;0.90;;
37973;SDS011;23796;51.458;7.000;2024-03-23T13:14:46;3.42;;;1.00;;
37973;SDS011;23796;51.458;7.000;2024-03-23T13:17:12;3.47;;;0.50;;
37973;SDS011;23796;51.458;7.000;2024-03-23T13:19:41;2.88;;;0.70;;
37973;SDS011;23796;51.458;7.000;2024-03-23T13:22:09;2.63;;;0.40;;
37973;SDS011;23796;51.458;7.000;2024-03-23T13:24:37;2.58;;;0.70;;
37973;SDS011;23796;51.458;7.000;2024-03-23T13:27:03;3.85;;;1.13;;
37973;SDS011;23796;51.458;7.000;2024-03-23T13:29:33;3.13;;;0.95;;
37973;SDS011;23796;51.458;7.000;2024-03-23T13:32:08;5.00;;;1.52;;
37973;SDS011;23796;51.458;7.000;2024-03-23T13:34:36;3.88;;;1.15;;
37973;SDS011;23796;51.458;7.000;2024-03-23T13:37:02;3.53;;;1.02;;
37973;SDS011;23796;51.458;7.000;2024-03-23T13:39:28;5.35;;;1.48;;
37973;SDS011;23796;51.458;7.000;2024-03-23T13:41:56;4.22;;;1.00;;
37973;SDS011;23796;51.458;7.000;2024-03-23T13:44:21;4.07;;;0.98;;
37973;SDS011;23796;51.458;7.000;2024-03-23T13:46:47;5.75;;;1.15;;
37973;SDS011;23796;51.458;7.000;2024-03-23T13:51:59;5.88;;;1.30;;
37973;SDS011;23796;51.458;7.000;2024-03-23T13:54:25;2.38;;;0.63;;
37973;SDS011;23796;51.458;7.000;2024-03-23T13:56:56;5.05;;;0.80;;
37973;SDS011;23796;51.458;7.000;2024-03-23T13:59:22;5.00;;;0.80;;
37973;SDS011;23796;51.458;7.000;2024-03-23T14:01:51;3.88;;;1.13;;
37973;SDS011;23796;51.458;7.000;2024-03-23T14:04:16;2.03;;;0.57;;
37973;SDS011;23796;51.458;7.000;2024-03-23T14:06:44;3.10;;;0.60;;
37973;SDS011;23796;51.458;7.000;2024-03-23T14:09:14;5.38;;;0.90;;
37973;SDS011;23796;51.458;7.000;2024-03-23T14:11:45;2.83;;;0.63;;
37973;SDS011;23796;51.458;7.000;2024-03-23T14:14:11;2.03;;;0.50;;
37973;SDS011;23796;51.458;7.000;2024-03-23T14:16:36;4.07;;;0.60;;
37973;SDS011;23796;51.458;7.000;2024-03-23T14:19:03;3.45;;;0.60;;
37973;SDS011;23796;51.458;7.000;2024-03-23T14:21:30;3.90;;;0.95;;
37973;SDS011;23796;51.458;7.000;2024-03-23T14:23:56;2.83;;;0.73;;
37973;SDS011;23796;51.458;7.000;2024-03-23T14:26:21;3.55;;;0.70;;
37973;SDS011;23796;51.458;7.000;2024-03-23T14:28:47;2.90;;;0.85;;
37973;SDS011;23796;51.458;7.000;2024-03-23T14:31:14;3.88;;;0.73;;
37973;SDS011;23796;51.458;7.000;2024-03-23T14:33:39;3.88;;;0.90;;
37973;SDS011;23796;51.458;7.000;2024-03-23T14:36:17;4.70;;;0.95;;
37973;SDS011;23796;51.458;7.000;2024-03-23T14:38:47;3.53;;;0.73;;
37973;SDS011;23796;51.458;7.000;2024-03-23T14:41:15;4.85;;;0.82;;
37973;SDS011;23796;51.458;7.000;2024-03-23T14:43:41;3.78;;;1.05;;
37973;SDS011;23796;51.458;7.000;2024-03-23T14:48:36;3.67;;;0.85;;
37973;SDS011;23796;51.458;7.000;2024-03-23T14:51:02;4.72;;;0.75;;
37973;SDS011;23796;51.458;7.000;2024-03-23T14:53:34;3.58;;;1.10;;
37973;SDS011;23796;51.458;7.000;2024-03-23T14:56:02;3.38;;;0.73;;
37973;SDS011;23796;51.458;7.000;2024-03-23T14:58:28;3.25;;;0.65;;
37973;SDS011;23796;51.458;7.000;2024-03-23T15:01:01;3.13;;;0.75;;
37973;SDS011;23796;51.458;7.000;2024-03-23T15:03:34;3.85;;;0.90;;
37973;SDS011;23796;51.458;7.000;2024-03-23T15:05:59;3.90;;;1.10;;
37973;SDS011;23796;51.458;7.000;2024-03-23T15:08:26;5.72;;;1.20;;
37973;SDS011;23796;51.458;7.000;2024-03-23T15:10:58;5.07;;;1.02;;
37973;SDS011;23796;51.458;7.000;2024-03-23T15:13:24;4.78;;;0.98;;
37973;SDS011;23796;51.458;7.000;2024-03-23T15:15:50;2.47;;;0.70;;
37973;SDS011;23796;51.458;7.000;2024-03-23T15:18:17;2.75;;;0.63;;
37973;SDS011;23796;51.458;7.000;2024-03-23T15:20:57;4.80;;;1.10;;
37973;SDS011;23796;51.458;7.000;2024-03-23T15:23:28;3.78;;;0.70;;
37973;SDS011;23796;51.458;7.000;2024-03-23T15:25:54;5.25;;;1.15;;
37973;SDS011;23796;51.458;7.000;2024-03-23T15:28:20;3.85;;;0.82;;
37973;SDS011;23796;51.458;7.000;2024-03-23T15:30:46;7.30;;;1.70;;
37973;SDS011;23796;51.458;7.000;2024-03-23T15:33:15;5.85;;;0.95;;
37973;SDS011;23796;51.458;7.000;2024-03-23T15:35:40;3.60;;;1.48;;
37973;SDS011;23796;51.458;7.000;2024-03-23T15:38:10;8.02;;;1.25;;
37973;SDS011;23796;51.458;7.000;2024-03-23T15:40:36;6.80;;;1.10;;
37973;SDS011;23796;51.458;7.000;2024-03-23T15:43:02;2.67;;;1.00;;
37973;SDS011;23796;51.458;7.000;2024-03-23T15:45:27;4.88;;;1.08;;
37973;SDS011;23796;51.458;7.000;2024-03-23T15:47:53;3.65;;;1.15;;
37973;SDS011;23796;51.458;7.000;2024-03-23T15:50:18;3.78;;;0.77;;
37973;SDS011;23796;51.458;7.000;2024-03-23T15:52:44;4.40;;;1.25;;
37973;SDS011;23796;51.458;7.000;2024-03-23T15:55:10;2.90;;;0.60;;
37973;SDS011;23796;51.458;7.000;2024-03-23T15:57:35;2.88;;;0.75;;
37973;SDS011;23796;51.458;7.000;2024-03-23T16:00:04;2.97;;;0.60;;
37973;SDS011;23796;51.458;7.000;2024-03-23T16:02:31;4.40;;;1.17;;
37973;SDS011;23796;51.458;7.000;2024-03-23T16:04:56;4.45;;;0.65;;
37973;SDS011;23796;51.458;7.000;2024-03-23T16:07:23;4.88;;;0.90;;
37973;SDS011;23796;51.458;7.000;2024-03-23T16:09:51;4.70;;;1.63;;